Time;durP1;ratioP1;P1;durP2;ratioP2;P2;SDS_P1;SDS_P2;PMS_P1;PMS_P2;Temp;Humidity;BMP_temperature;BMP_pressure;BME280_temperature;BME280_humidity;BME280_pressure;Samples;Min_cycle;Max_cycle;Signal;HPM_P1;HPM_P2
2021/12/12 00:02:09;;;;;;;30.75;6.20;;;;;;;9.82;100.00;101214.41;5115974;28;20051;-48
2021/12/12 00:04:44;;;;;;;17.05;5.55;;;;;;;9.93;100.00;101220.03;5114976;28;20537;-48
2021/12/12 00:07:15;;;;;;;11.95;4.88;;;;;;;10.02;100.00;101211.63;5115631;28;20069;-51
2021/12/12 00:09:46;;;;;;;18.42;5.57;;;;;;;10.02;100.00;101216.94;5115159;28;20530;-51
2021/12/12 00:12:18;;;;;;;19.15;6.30;;;;;;;10.02;100.00;101211.63;5115414;28;20056;-49
2021/12/12 00:14:46;;;;;;;13.00;4.60;;;;;;;9.95;100.00;101209.34;5115060;28;20066;-49
2021/12/12 00:17:15;;;;;;;18.85;4.90;;;;;;;9.81;100.00;101217.97;5115542;28;20066;-48
2021/12/12 00:19:45;;;;;;;20.20;4.55;;;;;;;9.74;100.00;101205.94;5116320;28;20051;-50
2021/12/12 00:22:17;;;;;;;14.55;4.75;;;;;;;9.84;100.00;101212.53;5114918;28;20062;-51
2021/12/12 00:24:45;;;;;;;;;;;;;;;9.89;100.00;101210.50;5115279;28;20530;-50
2021/12/12 00:27:14;;;;;;;11.77;4.80;;;;;;;9.92;100.00;101205.06;5115372;27;19919;-50
2021/12/12 00:29:43;;;;;;;19.58;5.65;;;;;;;9.95;100.00;101210.22;5115287;28;20062;-51
2021/12/12 00:32:14;;;;;;;17.67;5.10;;;;;;;9.93;100.00;101212.06;5115304;28;20494;-51
2021/12/12 00:34:47;;;;;;;16.30;5.80;;;;;;;9.91;100.00;101206.00;5115003;28;20497;-50
2021/12/12 00:37:17;;;;;;;18.55;4.90;;;;;;;9.79;100.00;101214.53;5114996;28;20077;-51
2021/12/12 00:39:49;;;;;;;16.73;4.60;;;;;;;9.77;100.00;101204.00;5115664;28;20188;-51
2021/12/12 00:42:20;;;;;;;17.85;5.03;;;;;;;9.77;100.00;101211.09;5115493;28;20059;-49
2021/12/12 00:44:50;;;;;;;12.43;4.03;;;;;;;9.82;100.00;101209.94;5115444;28;20407;-51
2021/12/12 00:47:19;;;;;;;11.05;4.13;;;;;;;9.88;100.00;101213.22;5114852;28;20052;-51
2021/12/12 00:50:10;;;;;;;14.77;4.30;;;;;;;9.95;100.00;101215.53;5114440;28;20117;-51
2021/12/12 00:52:38;;;;;;;11.13;4.13;;;;;;;9.93;100.00;101209.41;5115868;28;20063;-51
2021/12/12 00:55:07;;;;;;;12.48;4.90;;;;;;;9.93;100.00;101209.41;5115891;28;20062;-51
2021/12/12 00:57:36;;;;;;;10.13;3.90;;;;;;;9.96;100.00;101211.94;5114457;28;20060;-50
2021/12/12 01:00:06;;;;;;;12.70;4.15;;;;;;;9.94;100.00;101197.91;5115273;28;20074;-51
2021/12/12 01:02:34;;;;;;;10.63;4.07;;;;;;;9.85;100.00;101203.63;5114832;28;20542;-51
2021/12/12 01:05:08;;;;;;;14.75;5.28;;;;;;;9.71;100.00;101203.44;5114266;28;20056;-50
2021/12/12 01:07:39;;;;;;;10.65;3.60;;;;;;;9.70;100.00;101199.06;5114316;28;20051;-50
2021/12/12 01:10:11;;;;;;;14.68;4.15;;;;;;;9.63;100.00;101209.97;5115153;28;20066;-51
2021/12/12 01:12:40;;;;;;;8.82;3.97;;;;;;;9.54;100.00;101215.69;5114190;28;20058;-50
2021/12/12 01:15:13;;;;;;;11.70;3.63;;;;;;;9.47;100.00;101214.25;5117589;28;20052;-51
2021/12/12 01:17:44;;;;;;;11.85;3.78;;;;;;;9.49;100.00;101215.88;5118481;28;20055;-51
2021/12/12 01:20:20;;;;;;;13.37;4.80;;;;;;;9.46;100.00;101218.69;5119358;28;20056;-50
2021/12/12 01:22:50;;;;;;;14.20;4.78;;;;;;;9.49;100.00;101217.69;5119867;28;20270;-51
2021/12/12 01:25:21;;;;;;;14.35;4.32;;;;;;;9.59;100.00;101220.78;5119126;28;20052;-51
2021/12/12 01:27:49;;;;;;;9.05;4.18;;;;;;;9.60;100.00;101210.09;5118636;28;20387;-51
2021/12/12 01:30:18;;;;;;;10.23;4.88;;;;;;;9.72;100.00;101213.13;5119316;28;20402;-51
2021/12/12 01:32:53;;;;;;;7.95;3.22;;;;;;;9.83;100.00;101216.09;5118437;28;20060;-51
2021/12/12 01:35:23;;;;;;;13.48;5.10;;;;;;;9.88;100.00;101218.53;5118435;28;20067;-50
2021/12/12 01:40:38;;;;;;;8.40;3.75;;;;;;;9.92;100.00;101220.09;5117895;28;20066;-50
2021/12/12 01:43:21;;;;;;;9.25;3.60;;;;;;;9.97;100.00;101218.06;5118232;28;20495;-50
2021/12/12 01:45:54;;;;;;;6.70;3.35;;;;;;;10.00;100.00;101221.47;5117946;28;20051;-51
2021/12/12 01:48:25;;;;;;;20.02;6.57;;;;;;;10.02;100.00;101222.25;5118633;28;20052;-51
2021/12/12 01:50:58;;;;;;;9.93;3.55;;;;;;;10.06;100.00;101222.09;5118443;28;20051;-51
2021/12/12 01:53:29;;;;;;;7.40;3.45;;;;;;;10.08;100.00;101230.81;5118881;28;20063;-51
2021/12/12 01:56:02;;;;;;;8.13;3.63;;;;;;;10.16;100.00;101233.97;5117728;28;20051;-51
2021/12/12 01:58:33;;;;;;;7.35;3.00;;;;;;;10.26;100.00;101240.53;5118467;28;20063;-54
2021/12/12 02:01:05;;;;;;;6.03;3.00;;;;;;;10.26;100.00;101239.69;5118851;28;20062;-51
2021/12/12 02:03:37;;;;;;;11.85;3.50;;;;;;;10.19;100.00;101239.13;5118722;28;20109;-51
2021/12/12 02:06:14;;;;;;;7.43;3.38;;;;;;;10.18;100.00;101243.53;5117498;28;20423;-51
2021/12/12 02:08:42;;;;;;;8.40;3.15;;;;;;;10.15;100.00;101243.69;5118884;28;20406;-50
2021/12/12 02:11:15;;;;;;;7.10;3.17;;;;;;;10.16;100.00;101244.56;5118018;28;20063;-50
2021/12/12 02:13:48;;;;;;;7.65;3.22;;;;;;;10.19;100.00;101252.38;5118894;28;20399;-51
2021/12/12 02:16:18;;;;;;;7.50;3.22;;;;;;;10.18;100.00;101243.53;5118531;28;20056;-51
2021/12/12 02:18:50;;;;;;;13.18;3.70;;;;;;;10.19;100.00;101250.59;5117270;28;20056;-51
2021/12/12 02:21:24;;;;;;;;;;;;;;;10.25;100.00;101254.72;5117627;28;20051;-48
2021/12/12 02:24:22;;;;;;;7.00;2.60;;;;;;;10.27;100.00;101252.00;5117220;28;19919;-50
2021/12/12 02:35:21;;;;;;;9.00;3.13;;;;;;;10.26;100.00;101253.78;5117880;28;20063;-51
2021/12/12 02:37:50;;;;;;;8.10;3.53;;;;;;;10.31;100.00;101253.56;5117779;28;20060;-50
2021/12/12 02:40:23;;;;;;;9.68;3.00;;;;;;;10.37;100.00;101248.84;5118268;28;20056;-51
2021/12/12 02:42:51;;;;;;;11.50;3.13;;;;;;;10.35;100.00;101256.00;5117180;28;20511;-51
2021/12/12 02:45:21;;;;;;;8.77;2.67;;;;;;;10.36;100.00;101257.75;5116843;28;20055;-51
2021/12/12 02:47:57;;;;;;;7.93;3.10;;;;;;;10.35;100.00;101250.69;5117850;28;20066;-51
2021/12/12 02:50:29;;;;;;;6.72;2.42;;;;;;;10.38;100.00;101258.50;5117567;28;20058;-50
2021/12/12 02:53:02;;;;;;;9.95;2.70;;;;;;;10.39;100.00;101254.94;5116679;28;20063;-51
2021/12/12 02:55:35;;;;;;;10.27;2.50;;;;;;;10.33;100.00;101257.88;5117384;28;20052;-49
2021/12/12 02:58:06;;;;;;;12.90;2.72;;;;;;;10.34;100.00;101253.44;5117587;28;20089;-50
2021/12/12 03:00:38;;;;;;;6.53;2.57;;;;;;;10.31;100.00;101257.06;5116573;27;20066;-50
2021/12/12 03:03:08;;;;;;;11.10;3.20;;;;;;;10.33;100.00;101257.88;5117906;28;20305;-51
2021/12/12 03:05:41;;;;;;;11.80;3.67;;;;;;;10.35;100.00;101263.97;5117251;28;20052;-51
2021/12/12 03:08:10;;;;;;;9.95;2.85;;;;;;;10.37;100.00;101259.47;5116358;28;20063;-51
2021/12/12 03:10:44;;;;;;;6.95;2.60;;;;;;;10.46;100.00;101252.00;5116796;28;20077;-51
2021/12/12 03:13:12;;;;;;;7.85;2.08;;;;;;;10.44;100.00;101260.03;5116563;28;20063;-51
2021/12/12 03:15:43;;;;;;;10.05;2.95;;;;;;;10.42;100.00;101261.88;5116791;27;20056;-51
2021/12/12 03:18:15;;;;;;;15.98;4.55;;;;;;;10.39;100.00;101256.75;5116479;28;20055;-51
2021/12/12 03:20:47;;;;;;;12.02;2.70;;;;;;;10.40;100.00;101256.63;5116146;28;20067;-50
2021/12/12 03:23:19;;;;;;;12.02;2.78;;;;;;;10.36;100.00;101252.44;5117148;28;20055;-51
2021/12/12 03:25:54;;;;;;;8.82;2.10;;;;;;;10.38;100.00;101266.47;5116943;27;20055;-51
2021/12/12 03:28:24;;;;;;;13.70;3.60;;;;;;;10.40;100.00;101255.78;5117053;28;20059;-49
2021/12/12 03:30:55;;;;;;;17.20;2.45;;;;;;;10.41;100.00;101258.38;5116635;28;20059;-51
2021/12/12 03:33:24;;;;;;;16.52;2.88;;;;;;;10.37;100.00;101263.88;5117464;28;20070;-51
2021/12/12 03:35:55;;;;;;;22.70;3.15;;;;;;;10.41;100.00;101261.03;5116676;28;20458;-51
2021/12/12 03:38:27;;;;;;;11.82;2.45;;;;;;;10.43;100.00;101265.41;5114745;28;20051;-51
2021/12/12 03:40:58;;;;;;;10.15;2.25;;;;;;;10.45;100.00;101260.88;5115977;28;20142;-51
2021/12/12 03:43:26;;;;;;;16.27;2.38;;;;;;;10.45;100.00;101255.56;5115668;28;20500;-50
2021/12/12 03:45:55;;;;;;;16.13;2.13;;;;;;;10.43;100.00;101250.34;5115786;28;20051;-51
2021/12/12 03:48:26;;;;;;;11.65;2.65;;;;;;;10.46;100.00;101252.00;5116131;28;20059;-50
2021/12/12 03:50:57;;;;;;;11.90;2.05;;;;;;;10.45;100.00;101255.56;5116887;28;20067;-51
2021/12/12 03:53:25;;;;;;;7.03;1.60;;;;;;;10.47;100.00;101261.66;5116136;28;20055;-51
2021/12/12 03:55:55;;;;;;;16.45;2.30;;;;;;;10.50;100.00;101258.84;5115956;28;20056;-51
2021/12/12 03:58:25;;;;;;;11.05;2.17;;;;;;;10.50;100.00;101265.00;5115887;28;20503;-50
2021/12/12 04:00:56;;;;;;;18.58;2.47;;;;;;;10.50;100.00;101269.47;5116674;28;20055;-49
2021/12/12 04:03:25;;;;;;;8.70;2.20;;;;;;;10.47;100.00;101256.34;5116137;28;20406;-50
2021/12/12 04:05:56;;;;;;;12.18;2.20;;;;;;;10.49;100.00;101265.06;5115779;28;20495;-50
2021/12/12 04:08:26;;;;;;;17.63;3.38;;;;;;;10.46;100.00;101262.59;5116100;28;20051;-48
2021/12/12 04:10:55;;;;;;;13.90;2.35;;;;;;;10.49;100.00;101267.72;5116423;28;20055;-49
2021/12/12 04:13:25;;;;;;;12.48;2.50;;;;;;;10.45;100.00;101259.06;5115865;28;20056;-49
2021/12/12 04:15:54;;;;;;;12.18;1.75;;;;;;;10.38;100.00;101257.66;5115616;28;20056;-49
2021/12/12 04:18:23;;;;;;;11.90;2.40;;;;;;;10.46;100.00;101263.44;5115212;28;20176;-50
2021/12/12 04:20:51;;;;;;;12.73;2.80;;;;;;;10.39;100.00;101265.56;5116309;28;20100;-51
2021/12/12 04:23:23;;;;;;;16.42;3.80;;;;;;;10.41;100.00;101262.81;5115615;28;20047;-50
2021/12/12 04:25:52;;;;;;;6.90;1.65;;;;;;;10.44;100.00;101265.31;5114926;28;20486;-51
2021/12/12 04:28:22;;;;;;;13.60;2.33;;;;;;;10.41;100.00;101268.97;5115496;28;20058;-51
2021/12/12 04:30:51;;;;;;;7.68;2.00;;;;;;;10.39;100.00;101262.03;5114989;28;20056;-49
2021/12/12 04:33:20;;;;;;;10.95;2.60;;;;;;;10.47;100.00;101256.34;5116186;28;20055;-50
2021/12/12 04:35:48;;;;;;;9.80;1.75;;;;;;;10.45;100.00;101263.53;5114997;28;20404;-50
2021/12/12 04:38:16;;;;;;;13.60;1.98;;;;;;;10.39;100.00;101267.34;5115459;28;20069;-51
2021/12/12 04:40:44;;;;;;;11.95;2.60;;;;;;;10.36;100.00;101271.00;5114881;28;20059;-51
2021/12/12 04:43:12;;;;;;;17.08;2.25;;;;;;;10.30;100.00;101268.59;5116002;28;20051;-51
2021/12/12 04:45:51;;;;;;;13.27;1.85;;;;;;;10.34;100.00;101270.22;5114774;28;20061;-49
2021/12/12 04:51:17;;;;;;;11.73;2.85;;;;;;;10.40;100.00;101274.34;5114425;28;20055;-50
2021/12/12 04:53:48;;;;;;;13.15;2.10;;;;;;;10.43;100.00;101289.28;5115404;28;20060;-51
2021/12/12 04:56:21;;;;;;;14.57;2.80;;;;;;;10.36;100.00;101284.25;5114498;28;20067;-50
2021/12/12 04:58:58;;;;;;;16.80;3.50;;;;;;;10.36;100.00;101291.38;5115150;28;20055;-51
2021/12/12 05:01:32;;;;;;;14.25;3.55;;;;;;;10.37;100.00;101291.28;5114343;28;20134;-51
2021/12/12 05:04:06;;;;;;;11.02;3.03;;;;;;;10.32;100.00;101290.66;5114343;28;20586;-50
2021/12/12 05:06:38;;;;;;;12.05;3.10;;;;;;;10.37;100.00;101293.94;5114361;28;20047;-51
2021/12/12 05:09:07;;;;;;;;;;;;;;;10.34;100.00;101294.09;5114770;28;20051;-49
2021/12/12 05:11:41;;;;;;;13.65;2.83;;;;;;;10.39;100.00;101294.72;5114450;28;19926;-49
2021/12/12 05:14:12;;;;;;;13.00;2.72;;;;;;;10.40;100.00;101303.53;5115101;28;20105;-51
2021/12/12 05:16:43;;;;;;;22.40;3.10;;;;;;;10.39;100.00;101302.69;5115139;28;20070;-50
2021/12/12 05:19:16;;;;;;;14.52;2.88;;;;;;;10.39;100.00;101305.34;5114994;28;20048;-51
2021/12/12 05:21:48;;;;;;;14.88;2.60;;;;;;;10.33;100.00;101305.63;5114212;28;20070;-51
2021/12/12 05:24:18;;;;;;;14.73;3.15;;;;;;;10.32;100.00;101303.91;5114180;28;20070;-51
2021/12/12 05:26:56;;;;;;;18.25;3.00;;;;;;;10.29;100.00;101308.44;5114416;28;20059;-51
2021/12/12 05:29:27;;;;;;;16.55;2.78;;;;;;;10.26;100.00;101320.09;5115282;28;20070;-51
2021/12/12 05:31:57;;;;;;;24.85;2.85;;;;;;;10.28;100.00;101315.56;5114026;28;20498;-50
2021/12/12 05:34:30;;;;;;;13.68;2.63;;;;;;;10.28;100.00;101317.34;5114355;28;20067;-49
2021/12/12 05:37:01;;;;;;;16.42;2.70;;;;;;;10.17;100.00;101294.88;5114916;28;20058;-49
2021/12/12 05:39:30;;;;;;;17.70;2.72;;;;;;;10.18;100.00;101314.28;5115443;28;20415;-49
2021/12/12 05:41:58;;;;;;;15.93;2.75;;;;;;;10.16;100.00;101318.81;5114554;28;20503;-49
2021/12/12 05:44:29;;;;;;;18.80;3.00;;;;;;;10.17;100.00;101315.19;5115109;28;20078;-51
2021/12/12 05:46:59;;;;;;;9.73;2.05;;;;;;;10.20;100.00;101325.66;5115389;28;20055;-50
2021/12/12 05:49:29;;;;;;;20.30;2.80;;;;;;;10.18;100.00;101322.25;5113898;28;20058;-50
2021/12/12 05:51:57;;;;;;;12.35;2.17;;;;;;;10.25;100.00;101321.00;5114658;28;20062;-50
2021/12/12 05:54:26;;;;;;;13.52;2.47;;;;;;;10.31;100.00;101322.53;5114456;28;20388;-50
2021/12/12 05:56:54;;;;;;;12.27;2.15;;;;;;;10.25;100.00;101323.66;5114096;28;20066;-50
2021/12/12 05:59:23;;;;;;;18.92;1.90;;;;;;;10.25;100.00;101339.56;5115688;28;20071;-51
2021/12/12 06:01:52;;;;;;;18.38;3.70;;;;;;;10.32;100.00;101338.41;5116145;28;20515;-50
2021/12/12 06:04:20;;;;;;;18.58;2.72;;;;;;;10.32;100.00;101340.16;5117603;28;20494;-50
2021/12/12 06:06:51;;;;;;;13.55;3.22;;;;;;;10.26;100.00;101349.25;5117804;28;20052;-49
2021/12/12 06:09:20;;;;;;;19.52;2.67;;;;;;;10.29;100.00;101351.75;5119010;28;20052;-50
2021/12/12 06:11:51;;;;;;;14.73;2.33;;;;;;;10.33;100.00;101348.06;5117676;28;20058;-50
2021/12/12 06:14:22;;;;;;;13.07;2.30;;;;;;;10.32;100.00;101351.66;5117456;28;20055;-50
2021/12/12 06:16:52;;;;;;;15.15;2.00;;;;;;;10.25;100.00;101358.13;5118504;28;20051;-50
2021/12/12 06:19:21;;;;;;;12.32;2.40;;;;;;;10.26;100.00;101351.06;5117519;28;20052;-50
2021/12/12 06:21:53;;;;;;;20.00;2.60;;;;;;;10.27;100.00;101356.28;5117491;28;20055;-49
2021/12/12 06:24:24;;;;;;;17.98;2.58;;;;;;;10.22;100.00;101350.31;5118209;28;20066;-50
2021/12/12 06:26:53;;;;;;;15.90;2.13;;;;;;;10.22;100.00;101350.31;5118377;28;20055;-51
2021/12/12 06:29:22;;;;;;;11.80;2.53;;;;;;;10.22;100.00;101351.19;5117406;28;20535;-49
2021/12/12 06:31:53;;;;;;;21.48;3.17;;;;;;;10.21;100.00;101346.81;5117182;28;20051;-51
2021/12/12 06:34:21;;;;;;;14.07;2.20;;;;;;;10.25;100.00;101352.81;5117082;28;20060;-51
2021/12/12 06:36:52;;;;;;;17.63;2.05;;;;;;;10.25;100.00;101357.28;5117143;28;20062;-49
2021/12/12 06:39:21;;;;;;;17.38;2.45;;;;;;;10.28;100.00;101360.63;5117467;27;20062;-51
2021/12/12 06:41:50;;;;;;;10.50;1.88;;;;;;;10.26;100.00;101357.22;5117506;28;20056;-50
2021/12/12 06:44:19;;;;;;;18.08;2.92;;;;;;;10.29;100.00;101351.75;5117765;28;20056;-48
2021/12/12 06:46:47;;;;;;;10.73;2.17;;;;;;;10.27;100.00;101358.94;5117907;28;20051;-50
2021/12/12 06:49:17;;;;;;;14.07;2.30;;;;;;;10.26;100.00;101359.84;5116933;28;20051;-49
2021/12/12 06:51:48;;;;;;;19.38;2.38;;;;;;;10.22;100.00;101360.91;5117387;28;20043;-50
2021/12/12 06:54:21;;;;;;;7.93;1.87;;;;;;;10.24;100.00;101364.38;5117882;28;20056;-50
2021/12/12 06:56:53;;;;;;;15.40;2.20;;;;;;;10.21;100.00;101365.38;5116629;28;20056;-48
2021/12/12 06:59:23;;;;;;;9.02;2.40;;;;;;;10.31;100.00;101364.94;5118128;28;20060;-50
2021/12/12 07:01:51;;;;;;;13.20;2.10;;;;;;;10.34;100.00;101365.69;5117098;28;20055;-48
2021/12/12 07:04:20;;;;;;;7.85;1.92;;;;;;;10.23;100.00;101374.09;5117318;28;20534;-50
2021/12/12 07:06:49;;;;;;;8.80;1.85;;;;;;;10.19;100.00;101374.34;5117024;28;20422;-49
2021/12/12 07:09:19;;;;;;;18.23;2.72;;;;;;;10.21;100.00;101375.97;5116601;28;20537;-50
2021/12/12 07:11:48;;;;;;;13.30;2.35;;;;;;;10.20;100.00;101373.41;5116182;28;20058;-50
2021/12/12 07:14:17;;;;;;;13.35;2.92;;;;;;;10.23;100.00;101367.94;5117415;28;20051;-51
2021/12/12 07:16:46;;;;;;;11.95;2.30;;;;;;;10.22;100.00;101374.16;5116763;28;20078;-48
2021/12/12 07:19:16;;;;;;;12.25;2.70;;;;;;;10.18;100.00;101372.59;5116930;28;20522;-51
2021/12/12 07:21:45;;;;;;;8.35;1.98;;;;;;;10.24;100.00;101369.69;5116734;28;20503;-50
2021/12/12 07:24:13;;;;;;;17.45;2.38;;;;;;;10.21;100.00;101375.13;5117287;28;20070;-51
2021/12/12 07:26:43;;;;;;;14.93;3.17;;;;;;;10.31;100.00;101376.41;5116590;28;20063;-51
2021/12/12 07:29:11;;;;;;;10.40;1.95;;;;;;;10.25;100.00;101370.53;5117145;28;20048;-50
2021/12/12 07:31:42;;;;;;;17.73;2.33;;;;;;;10.26;100.00;101378.41;5116362;28;20056;-50
2021/12/12 07:34:14;;;;;;;13.45;2.20;;;;;;;10.25;100.00;101381.13;5115911;28;20101;-50
2021/12/12 07:36:45;;;;;;;11.73;2.13;;;;;;;10.19;100.00;101379.66;5116695;28;20055;-48
2021/12/12 07:39:16;;;;;;;9.57;2.08;;;;;;;10.22;100.00;101384.78;5116674;28;20055;-50
2021/12/12 07:41:47;;;;;;;13.38;2.15;;;;;;;10.20;100.00;101379.56;5116418;28;20074;-48
2021/12/12 07:44:18;;;;;;;12.85;2.35;;;;;;;10.16;100.00;101379.78;5115739;28;20530;-49
2021/12/12 07:46:47;;;;;;;9.68;2.75;;;;;;;10.06;100.00;101376.69;5117082;27;20067;-48
2021/12/12 07:49:20;;;;;;;13.10;2.40;;;;;;;10.13;100.00;101383.41;5116636;28;20052;-50
2021/12/12 07:51:48;;;;;;;21.90;2.60;;;;;;;10.14;100.00;101379.00;5115394;28;20065;-50
2021/12/12 07:54:17;;;;;;;17.13;2.38;;;;;;;10.22;100.00;101387.44;5116101;28;20062;-48
2021/12/12 07:56:46;;;;;;;15.52;2.58;;;;;;;10.15;100.00;101383.34;5115675;28;20070;-51
2021/12/12 07:59:16;;;;;;;11.48;2.85;;;;;;;10.09;100.00;101383.66;5115786;28;20059;-50
2021/12/12 08:01:48;;;;;;;16.25;3.30;;;;;;;10.14;100.00;101381.66;5115596;28;20062;-48
2021/12/12 08:04:19;;;;;;;15.65;3.15;;;;;;;10.16;100.00;101382.44;5115244;28;20063;-49
2021/12/12 08:06:48;;;;;;;15.77;3.90;;;;;;;10.14;100.00;101394.91;5116406;28;20058;-49
2021/12/12 08:09:17;;;;;;;12.73;3.95;;;;;;;10.20;100.00;101390.19;5115305;28;20435;-51
2021/12/12 08:11:47;;;;;;;19.02;4.03;;;;;;;10.26;100.00;101394.31;5116477;28;20361;-49
2021/12/12 08:14:18;;;;;;;15.70;3.92;;;;;;;10.27;100.00;101396.06;5115074;27;20051;-50
2021/12/12 08:16:47;;;;;;;19.30;3.50;;;;;;;10.30;100.00;101406.50;5116233;28;20051;-51
2021/12/12 08:19:16;;;;;;;14.98;3.47;;;;;;;10.32;100.00;101410.00;5115587;28;20052;-48
2021/12/12 08:21:45;;;;;;;16.42;3.38;;;;;;;10.29;100.00;101412.75;5115482;28;20058;-50
2021/12/12 08:24:13;;;;;;;14.60;2.83;;;;;;;10.27;100.00;101416.41;5114259;28;20059;-48
2021/12/12 08:26:44;;;;;;;11.75;3.40;;;;;;;10.30;100.00;101409.16;5115066;28;20058;-48
2021/12/12 08:29:15;;;;;;;14.82;2.25;;;;;;;10.35;100.00;101417.78;5116287;28;20055;-49
2021/12/12 08:31:43;;;;;;;23.33;3.63;;;;;;;10.35;100.00;101417.78;5114616;28;20056;-51
2021/12/12 08:34:12;;;;;;;14.05;2.53;;;;;;;10.30;100.00;101416.25;5115762;28;20078;-50
2021/12/12 08:36:45;;;;;;;12.27;2.40;;;;;;;10.31;100.00;101415.34;5116109;28;20051;-50
2021/12/12 08:39:14;;;;;;;17.17;2.67;;;;;;;10.30;100.00;101418.91;5115010;28;20503;-48
2021/12/12 08:41:43;;;;;;;10.23;2.10;;;;;;;10.41;100.00;101430.78;5115138;28;20063;-49
2021/12/12 08:44:14;;;;;;;11.77;2.58;;;;;;;10.43;100.00;101437.81;5114902;28;20067;-48
2021/12/12 08:46:45;;;;;;;6.72;1.92;;;;;;;10.47;100.00;101436.72;5115424;28;20055;-50
2021/12/12 08:49:14;;;;;;;9.27;2.27;;;;;;;10.54;100.00;101435.47;5115433;28;20068;-50
2021/12/12 08:51:46;;;;;;;9.52;2.70;;;;;;;10.51;100.00;101435.66;5115737;28;20051;-49
2021/12/12 08:54:25;;;;;;;16.40;2.17;;;;;;;10.55;100.00;101442.53;5114478;27;20530;-50
2021/12/12 08:57:04;;;;;;;14.13;3.13;;;;;;;10.55;100.00;101448.69;5115487;28;20282;-50
2021/12/12 08:59:43;;;;;;;9.82;2.33;;;;;;;10.62;100.00;101438.63;5115369;28;20052;-50
2021/12/12 09:02:14;;;;;;;14.77;2.88;;;;;;;10.69;100.00;101440.09;5115845;28;20055;-50
2021/12/12 09:04:48;;;;;;;11.15;2.53;;;;;;;10.63;100.00;101440.38;5115304;28;20078;-50
2021/12/12 09:07:19;;;;;;;15.60;2.50;;;;;;;10.69;100.00;101441.84;5114320;28;20070;-50
2021/12/12 09:09:51;;;;;;;9.88;2.13;;;;;;;10.68;100.00;101446.31;5114366;28;20048;-50
2021/12/12 09:12:21;;;;;;;14.50;2.45;;;;;;;10.70;100.00;101452.41;5114220;28;20060;-49
2021/12/12 09:15:02;;;;;;;7.47;2.20;;;;;;;10.83;100.00;101449.19;5114065;28;20059;-48
2021/12/12 09:17:33;;;;;;;12.43;2.90;;;;;;;10.85;100.00;101452.63;5114235;28;20052;-50
2021/12/12 09:20:10;;;;;;;12.88;2.40;;;;;;;10.86;100.00;101456.97;5115615;28;20467;-50
2021/12/12 09:22:42;;;;;;;11.68;2.60;;;;;;;10.88;100.00;101460.44;5115645;28;20064;-51
2021/12/12 09:25:15;;;;;;;;;;;;;;;10.89;100.00;101459.47;5116087;28;20060;-48
2021/12/12 09:27:45;;;;;;;11.77;2.50;;;;;;;10.96;100.00;101458.25;5114181;28;19919;-48
2021/12/12 09:30:17;;;;;;;13.77;2.67;;;;;;;10.95;100.00;101457.41;5114962;28;20063;-50
2021/12/12 09:32:49;;;;;;;14.18;3.40;;;;;;;11.04;100.00;101457.88;5114927;28;20082;-48
2021/12/12 09:35:21;;;;;;;15.77;3.22;;;;;;;11.10;100.00;101454.94;5116525;28;20060;-50
2021/12/12 09:37:51;;;;;;;;;;;;;;;11.14;100.00;101462.66;5118555;28;20070;-50
2021/12/12 09:40:28;;;;;;;10.68;2.53;;;;;;;11.26;99.15;101460.34;5119513;28;19919;-51
2021/12/12 09:43:06;;;;;;;10.98;2.35;;;;;;;11.32;97.87;101460.03;5118362;28;20062;-51
2021/12/12 09:46:01;;;;;;;8.52;2.15;;;;;;;11.27;98.62;101462.06;5119125;28;20066;-49
2021/12/12 09:51:40;;;;;;;14.02;2.47;;;;;;;11.27;98.11;101462.06;5118447;27;20056;-51
2021/12/12 09:54:34;;;;;;;13.38;3.05;;;;;;;11.37;97.77;101463.31;5117977;28;20063;-49
2021/12/12 09:57:06;;;;;;;11.63;2.42;;;;;;;11.49;96.50;101470.66;5115180;28;20060;-49
2021/12/12 09:59:45;;;;;;;13.82;2.50;;;;;;;11.55;97.02;101471.28;5077964;28;20064;-51
2021/12/12 10:02:23;;;;;;;12.25;2.67;;;;;;;11.65;96.25;101460.13;5077477;28;20060;-56
2021/12/12 10:05:04;;;;;;;7.93;2.40;;;;;;;11.64;95.45;101468.16;5078118;28;20060;-50
2021/12/12 10:07:45;;;;;;;9.30;2.90;;;;;;;11.71;94.89;101461.59;5077807;28;20059;-50
2021/12/12 10:10:18;;;;;;;14.20;2.75;;;;;;;11.70;95.79;101470.50;5077734;28;20071;-51
2021/12/12 10:12:54;;;;;;;11.73;2.30;;;;;;;11.78;95.85;101468.31;5076740;28;20563;-49
2021/12/12 10:15:25;;;;;;;7.38;2.10;;;;;;;11.87;94.84;101473.16;5076759;28;20052;-48
2021/12/12 10:18:00;;;;;;;6.25;2.40;;;;;;;11.93;95.40;101476.47;5077554;28;20052;-49
2021/12/12 10:20:33;;;;;;;12.02;2.30;;;;;;;11.91;94.91;101471.22;5078106;28;20056;-51
2021/12/12 10:23:13;;;;;;;14.68;2.42;;;;;;;12.02;94.49;101468.88;5077445;28;20087;-49
2021/12/12 10:25:50;;;;;;;9.93;2.72;;;;;;;12.12;94.11;101471.91;5077443;28;20059;-48
2021/12/12 10:28:21;;;;;;;10.57;2.05;;;;;;;12.13;94.20;101468.28;5077585;28;20087;-51
2021/12/12 10:30:58;;;;;;;13.18;2.40;;;;;;;12.27;93.74;101468.41;5077665;28;20056;-49
2021/12/12 10:33:34;;;;;;;9.70;2.22;;;;;;;12.40;92.99;101465.09;5076392;28;20060;-49
2021/12/12 10:36:07;;;;;;;13.85;2.00;;;;;;;12.53;92.27;101468.78;5077544;28;20052;-50
2021/12/12 10:38:39;;;;;;;10.57;1.90;;;;;;;12.66;91.06;101470.75;5076670;28;20436;-51
2021/12/12 10:41:10;;;;;;;8.73;2.03;;;;;;;12.74;91.49;101473.84;5077786;28;20052;-51
2021/12/12 10:43:41;;;;;;;12.00;1.93;;;;;;;12.75;90.68;101464.94;5077211;28;20057;-51
2021/12/12 10:46:13;;;;;;;8.52;2.08;;;;;;;12.74;90.69;101468.53;5076293;28;20052;-49
2021/12/12 10:48:44;;;;;;;;;;;;;;;12.79;89.95;101467.34;5075834;28;20056;-51
2021/12/12 10:51:17;;;;;;;14.93;2.47;;;;;;;12.78;90.15;101464.78;5076443;28;20007;-49
2021/12/12 10:53:51;;;;;;;14.20;2.00;;;;;;;12.96;88.59;101468.19;5076290;28;20060;-50
2021/12/12 10:56:24;;;;;;;10.32;2.25;;;;;;;13.01;87.81;101460.78;5077494;28;20056;-50
2021/12/12 10:58:56;;;;;;;9.55;1.90;;;;;;;13.06;87.26;101448.06;5106793;28;20060;-48
2021/12/12 11:01:27;;;;;;;7.88;1.48;;;;;;;12.93;88.05;101449.75;5116617;28;20523;-50
2021/12/12 11:04:05;;;;;;;10.05;1.70;;;;;;;12.99;87.73;101447.59;5116521;28;20094;-49
2021/12/12 11:06:37;;;;;;;5.95;1.75;;;;;;;13.20;86.80;101449.94;5117055;28;20063;-49
2021/12/12 11:09:08;;;;;;;16.13;2.00;;;;;;;13.08;85.69;101446.19;5116748;28;20058;-51
2021/12/12 11:11:41;;;;;;;11.82;1.95;;;;;;;13.01;85.73;101440.34;5117248;27;20051;-51
2021/12/12 11:14:16;;;;;;;9.88;2.97;;;;;;;12.75;85.21;101433.00;5117072;28;20066;-50
2021/12/12 11:16:50;;;;;;;11.45;2.10;;;;;;;12.92;85.51;101438.19;5117348;28;20063;-51
2021/12/12 11:19:24;;;;;;;9.25;1.63;;;;;;;13.05;84.48;101441.03;5117032;28;20055;-52
2021/12/12 11:21:57;;;;;;;8.48;1.95;;;;;;;13.08;84.02;101434.66;5116461;28;20055;-51
2021/12/12 11:24:28;;;;;;;10.50;2.15;;;;;;;13.14;82.34;101444.97;5116944;28;20059;-48
2021/12/12 11:27:00;;;;;;;8.60;2.03;;;;;;;13.19;82.43;101437.56;5116080;28;20051;-49
2021/12/12 11:29:31;;;;;;;10.20;2.10;;;;;;;13.22;81.87;101437.38;5116033;28;20052;-51
2021/12/12 11:32:05;;;;;;;11.05;2.10;;;;;;;13.25;80.83;101425.72;5115866;28;20062;-51
2021/12/12 11:34:47;;;;;;;9.50;2.20;;;;;;;13.13;80.76;101429.91;5116655;28;20112;-50
2021/12/12 11:37:19;;;;;;;8.07;1.63;;;;;;;13.02;81.33;101434.06;5116594;28;20056;-51
2021/12/12 11:39:52;;;;;;;9.85;1.65;;;;;;;13.13;79.46;101433.47;5115837;28;20060;-48
2021/12/12 11:42:24;;;;;;;8.80;1.30;;;;;;;13.14;77.93;101418.31;5116599;28;20169;-51
2021/12/12 11:45:01;;;;;;;;;;;;;;;13.13;77.99;101417.47;5116073;28;20522;-50
2021/12/12 11:47:47;;;;;;;11.18;1.70;;;;;;;13.20;77.86;101417.97;5115682;28;19926;-51
2021/12/12 11:50:24;;;;;;;9.05;1.65;;;;;;;13.18;78.03;101419.88;5115576;28;20056;-51
2021/12/12 11:52:55;;;;;;;7.63;1.55;;;;;;;13.13;76.89;101411.28;5115848;28;20058;-51
2021/12/12 11:55:27;;;;;;;4.97;1.63;;;;;;;13.16;76.60;101413.75;5116613;28;20056;-52